1873 NOT_NAMED (1873021S17054)


IBTrACS version v04r00. Visit IBTrACS website for data access.
Please direct all questions to the IBTrACS Q and A forum

Storm track - Intensity - Wind Radii - Intensity Data - Source Data - All data

Summary Information

Storm ID 1873021S17054
Start Jan 21 06Z
End Jan 29 06Z
ATCF IDs
Track status Best track data.

Storm track plot

Map of storm track

Intensity plots

No Intensity information for this storm


Radial wind information

No radial wind information for this storm


Position and Intensity Table

BASIN ISO_TIME_________ NATURE LAT LON
degrees north degrees east
SI 1873-01-21 06:00:00 NR -17.40 53.75
SI 09:00:00 NR -17.66 53.64
SI 12:00:00 NR -17.91 53.52
SI 15:00:00 NR -18.12 53.39
SI 18:00:00 NR -18.30 53.25
SI 21:00:00 NR -18.43 53.09
SI 1873-01-22 00:00:00 NR -18.52 52.91
SI 03:00:00 NR -18.60 52.73
SI 06:00:00 NR -18.70 52.55
SI 09:00:00 NR -18.84 52.39
SI 12:00:00 NR -19.00 52.23
SI 15:00:00 NR -19.17 52.06
SI 18:00:00 NR -19.34 51.89
SI 21:00:00 NR -19.50 51.70
SI 1873-01-23 00:00:00 NR -19.67 51.51
SI 03:00:00 NR -19.83 51.33
SI 06:00:00 NR -20.00 51.15
SI 09:00:00 NR -20.17 50.99
SI 12:00:00 NR -20.34 50.85
SI 15:00:00 NR -20.51 50.71
SI 18:00:00 NR -20.67 50.58
SI 21:00:00 NR -20.83 50.46
SI 1873-01-24 00:00:00 NR -20.98 50.35
SI 03:00:00 NR -21.14 50.24
SI 06:00:00 NR -21.30 50.15
SI 09:00:00 NR -21.47 50.07
SI 12:00:00 NR -21.65 49.99
SI 15:00:00 NR -21.83 49.93
SI 18:00:00 NR -22.01 49.87
SI 21:00:00 NR -22.17 49.80
SI 1873-01-25 00:00:00 NR -22.33 49.75
SI 03:00:00 NR -22.50 49.69
SI 06:00:00 NR -22.70 49.65
SI 09:00:00 NR -22.94 49.60
SI 12:00:00 NR -23.21 49.56
SI 15:00:00 NR -23.50 49.53
SI 18:00:00 NR -23.79 49.51
SI 21:00:00 NR -24.08 49.51
SI 1873-01-26 00:00:00 NR -24.37 49.53
SI 03:00:00 NR -24.66 49.56
SI 06:00:00 NR -24.95 49.60
SI 09:00:00 NR -25.25 49.64
SI 12:00:00 NR -25.54 49.70
SI 15:00:00 NR -25.84 49.77
SI 18:00:00 NR -26.13 49.85
SI 21:00:00 NR -26.42 49.95
SI 1873-01-27 00:00:00 NR -26.57 49.98
SI 03:00:00 NR -26.69 49.99
SI 06:00:00 NR -26.74 49.94
SI 09:00:00 NR -26.68 49.79
SI 12:00:00 NR -26.93 49.89
SI 15:00:00 NR -27.17 50.00
SI 18:00:00 NR -27.39 50.12
SI 21:00:00 NR -27.60 50.24
SI 1873-01-28 00:00:00 NR -27.78 50.36
SI 03:00:00 NR -27.95 50.48
SI 06:00:00 NR -28.10 50.60
SI 09:00:00 NR -28.24 50.71
SI 12:00:00 NR -28.36 50.82
SI 15:00:00 NR -28.47 50.92
SI 18:00:00 NR -28.57 51.02
SI 21:00:00 NR -28.66 51.12
SI 1873-01-29 00:00:00 NR -28.74 51.21
SI 03:00:00 NR -28.82 51.31
SI 06:00:00 NR -28.90 51.40

Source Information

Agency Information
USA
TOKYO
CMA
HKO
NEWDELHI
REUNION WMO-Best-Tracks.txt:Line=975:xxxx873143
BOM
NADI
WELLINGTON
DS824
TD9636 cons_worldwide_trop_cyclone_18710101-19891231-005:Line=1322
TD9635
NEUMANN
MLC

All available IBTrACS Data

SEASON BASIN SUBBASIN ISO_TIME_________ NATURE LAT LON WMO AGENCY DIST2LAND LANDFALL IFLAG USA SSHS REUNION LAT REUNION LON REUNION TYPE REUNION TNUM TD9636 LAT TD9636 LON TD9636 STAGE STORM SPEED STORM DIR
Year degrees north degrees east km km 1 degrees north degrees east 1 degrees north degrees east kts degrees
1873 SI MM 1873-01-21 06:00:00 NR -17.40 53.75 reunion 413 403 _____O____O___ -1 -17.70 54.10 99 9.90 -17.10 53.40 7 6 202
1873 SI MM 09:00:00 NR -17.66 53.64 408 394 _____P____P___ -1 -17.75 54.03 99 -17.57 53.24 7 6 203
1873 SI MM 12:00:00 NR -17.91 53.52 394 380 _____P____P___ -1 -17.79 53.96 99 -18.02 53.08 7 5 207
1873 SI MM 15:00:00 NR -18.12 53.39 380 367 _____P____P___ -1 -17.84 53.89 99 -18.40 52.90 7 5 213
1873 SI MM 18:00:00 NR -18.30 53.25 373 364 _____P____O___ -1 -17.90 53.80 99 -18.70 52.70 7 4 224
1873 SI MM 21:00:00 NR -18.43 53.09 370 368 _____P____P___ -1 -17.96 53.70 99 -18.89 52.47 7 4 235
1873 SI MM 1873-01-22 00:00:00 NR -18.52 52.91 370 351 _____P____P___ -1 -18.03 53.59 99 -19.01 52.23 7 4 242
1873 SI MM 03:00:00 NR -18.60 52.73 351 340 _____P____P___ -1 -18.11 53.45 99 -19.10 52.00 7 4 242
1873 SI MM 06:00:00 NR -18.70 52.55 reunion 342 323 _____O____O___ -1 -18.20 53.30 99 9.90 -19.20 51.80 7 4 234
1873 SI MM 09:00:00 NR -18.84 52.39 323 308 _____P____P___ -1 -18.30 53.12 99 -19.38 51.65 7 4 226
1873 SI MM 12:00:00 NR -19.00 52.23 308 301 _____P____P___ -1 -18.42 52.92 99 -19.58 51.53 7 4 223
1873 SI MM 15:00:00 NR -19.17 52.06 305 290 _____P____P___ -1 -18.54 52.71 99 -19.79 51.42 7 5 223
1873 SI MM 18:00:00 NR -19.34 51.89 290 277 _____P____O___ -1 -18.68 52.49 99 -20.00 51.30 7 5 225
1873 SI MM 21:00:00 NR -19.50 51.70 277 260 _____P____P___ -1 -18.82 52.26 99 -20.19 51.15 7 5 227
1873 SI MM 1873-01-23 00:00:00 NR -19.67 51.51 263 247 _____P____P___ -1 -18.97 52.03 99 -20.37 50.99 7 5 227
1873 SI MM 03:00:00 NR -19.83 51.33 247 242 _____P____P___ -1 -19.13 51.81 99 -20.54 50.84 7 5 226
1873 SI MM 06:00:00 NR -20.00 51.15 reunion 246 230 _____O____O___ -1 -19.30 51.60 99 9.90 -20.70 50.70 7 5 223
1873 SI MM 09:00:00 NR -20.17 50.99 230 220 _____P____P___ -1 -19.48 51.41 99 -20.86 50.58 7 4 220
1873 SI MM 12:00:00 NR -20.34 50.85 211 205 _____P____P___ -1 -19.66 51.22 99 -21.01 50.48 7 4 218
1873 SI MM 15:00:00 NR -20.51 50.71 205 199 _____P____P___ -1 -19.85 51.04 99 -21.16 50.38 7 4 216
1873 SI MM 18:00:00 NR -20.67 50.58 203 193 _____P____O___ -1 -20.05 50.87 99 -21.30 50.30 7 4 216
1873 SI MM 21:00:00 NR -20.83 50.46 198 189 _____P____P___ -1 -20.25 50.71 99 -21.42 50.21 7 4 215
1873 SI MM 1873-01-24 00:00:00 NR -20.98 50.35 189 183 _____P____P___ -1 -20.44 50.56 99 -21.53 50.13 7 4 213
1873 SI MM 03:00:00 NR -21.14 50.24 183 183 _____P____P___ -1 -20.62 50.42 99 -21.65 50.06 7 4 210
1873 SI MM 06:00:00 NR -21.30 50.15 reunion 189 179 _____O____O___ -1 -20.80 50.30 99 9.90 -21.80 50.00 7 4 206
1873 SI MM 09:00:00 NR -21.47 50.07 184 174 _____P____P___ -1 -20.94 50.19 99 -22.00 49.94 7 4 203
1873 SI MM 12:00:00 NR -21.65 49.99 178 171 _____P____P___ -1 -21.07 50.09 99 -22.23 49.89 7 4 200
1873 SI MM 15:00:00 NR -21.83 49.93 171 171 _____P____P___ -1 -21.20 50.01 99 -22.47 49.85 7 4 198
1873 SI MM 18:00:00 NR -22.01 49.87 176 168 _____P____O___ -1 -21.33 49.93 99 -22.70 49.80 7 4 199
1873 SI MM 21:00:00 NR -22.17 49.80 170 164 _____P____P___ -1 -21.46 49.87 99 -22.88 49.74 7 3 200
1873 SI MM 1873-01-25 00:00:00 NR -22.33 49.75 164 164 _____P____P___ -1 -21.59 49.81 99 -23.06 49.69 7 3 198
1873 SI MM 03:00:00 NR -22.50 49.69 173 173 _____P____P___ -1 -21.74 49.75 99 -23.26 49.64 7 4 193
1873 SI MM 06:00:00 NR -22.70 49.65 reunion 182 172 _____O____O___ -1 -21.90 49.70 99 9.90 -23.50 49.60 7 5 191
1873 SI MM 09:00:00 NR -22.94 49.60 179 179 _____P____P___ -1 -22.08 49.63 99 -23.81 49.57 7 5 190
1873 SI MM 12:00:00 NR -23.21 49.56 187 179 _____P____P___ -1 -22.26 49.55 99 -24.16 49.56 7 6 187
1873 SI MM 15:00:00 NR -23.50 49.53 183 183 _____P____P___ -1 -22.46 49.49 99 -24.53 49.57 7 6 184
1873 SI MM 18:00:00 NR -23.79 49.51 188 188 _____P____O___ -1 -22.68 49.43 99 -24.90 49.60 7 6 0
1873 SI MM 21:00:00 NR -24.08 49.51 199 199 _____P____P___ -1 -22.91 49.38 99 -25.24 49.65 7 6 178
1873 SI MM 1873-01-26 00:00:00 NR -24.37 49.53 207 207 _____P____P___ -1 -23.16 49.34 99 -25.58 49.72 7 6 176
1873 SI MM 03:00:00 NR -24.66 49.56 226 226 _____P____P___ -1 -23.42 49.31 99 -25.90 49.81 7 6 173
1873 SI MM 06:00:00 NR -24.95 49.60 reunion 235 235 _____O____O___ -1 -23.70 49.30 99 9.90 -26.20 49.90 7 6 172
1873 SI MM 09:00:00 NR -25.25 49.64 244 244 _____P____P___ -1 -24.01 49.30 99 -26.48 49.98 7 6 171
1873 SI MM 12:00:00 NR -25.54 49.70 266 266 _____P____P___ -1 -24.35 49.32 99 -26.73 50.08 7 6 169
1873 SI MM 15:00:00 NR -25.84 49.77 285 285 _____P____P___ -1 -24.70 49.35 99 -26.97 50.18 7 6 167
1873 SI MM 18:00:00 NR -26.13 49.85 306 306 _____P____O___ -1 -25.06 49.40 99 -27.20 50.30 7 6 164
1873 SI MM 21:00:00 NR -26.42 49.95 320 320 _____P____P___ -1 -25.41 49.46 99 -27.43 50.43 7 5 165
1873 SI MM 1873-01-27 00:00:00 NR -26.57 49.98 340 340 _____P____P___ -1 -25.76 49.53 99 -27.65 50.58 7 3 173
1873 SI MM 03:00:00 NR -26.69 49.99 346 338 _____P____P___ -1 -26.09 49.61 99 -27.88 50.74 7 2 192
1873 SI MM 06:00:00 NR -26.74 49.94 reunion 338 330 _____O____O___ -1 -26.40 49.70 99 9.90 -28.10 50.90 7 2 273
1873 SI MM 09:00:00 NR -26.68 49.79 330 330 _____P________ -1 -26.68 49.79 99 7 2 192
1873 SI MM 12:00:00 NR -26.93 49.89 351 351 _____P________ -1 -26.93 49.89 99 7 5 159
1873 SI MM 15:00:00 NR -27.17 50.00 379 379 _____P________ -1 -27.17 50.00 99 7 5 156
1873 SI MM 18:00:00 NR -27.39 50.12 401 401 _____P________ -1 -27.39 50.12 99 5 154
1873 SI MM 21:00:00 NR -27.60 50.24 423 423 _____P________ -1 -27.60 50.24 99 4 151
1873 SI MM 1873-01-28 00:00:00 NR -27.78 50.36 453 453 _____P________ -1 -27.78 50.36 99 4 149
1873 SI MM 03:00:00 NR -27.95 50.48 467 467 _____P________ -1 -27.95 50.48 99 4 147
1873 SI MM 06:00:00 NR -28.10 50.60 reunion 489 489 _____O________ -1 -28.10 50.60 99 9.90 4 145
1873 SI MM 09:00:00 NR -28.24 50.71 504 504 _____P________ -1 -28.24 50.71 99 3 143
1873 SI MM 12:00:00 NR -28.36 50.82 527 527 _____P________ -1 -28.36 50.82 99 3 141
1873 SI MM 15:00:00 NR -28.47 50.92 541 541 _____P________ -1 -28.47 50.92 99 3 139
1873 SI MM 18:00:00 NR -28.57 51.02 556 556 _____P________ -1 -28.57 51.02 99 3 138
1873 SI MM 21:00:00 NR -28.66 51.12 571 571 _____P________ -1 -28.66 51.12 99 2 136
1873 SI MM 1873-01-29 00:00:00 NR -28.74 51.21 578 578 _____P________ -1 -28.74 51.21 99 2 136
1873 SI MM 03:00:00 NR -28.82 51.31 593 593 _____P________ -1 -28.82 51.31 99 2 134
1873 SI MM 06:00:00 NR -28.90 51.40 reunion 607 _____O________ -1 -28.90 51.40 99 9.90 2 135